sensor_id;sensor_type;location;lat;lon;timestamp;pressure;altitude;pressure_sealevel;temperature;humidity
10700;BME280;5401;41.986;21.452;2022-12-22T00:02:26;98853.91;;;3.29;81.65
10700;BME280;5401;41.986;21.452;2022-12-22T00:05:13;98855.06;;;3.26;81.75
10700;BME280;5401;41.986;21.452;2022-12-22T00:08:00;98851.75;;;3.24;82.67
10700;BME280;5401;41.986;21.452;2022-12-22T00:10:45;98849.09;;;3.24;82.36
10700;BME280;5401;41.986;21.452;2022-12-22T00:13:30;98862.19;;;3.26;81.91
10700;BME280;5401;41.986;21.452;2022-12-22T00:16:16;98843.59;;;3.18;81.82
10700;BME280;5401;41.986;21.452;2022-12-22T00:19:01;98862.31;;;3.24;82.54
10700;BME280;5401;41.986;21.452;2022-12-22T00:21:46;98853.41;;;3.25;82.75
10700;BME280;5401;41.986;21.452;2022-12-22T00:24:32;98855.69;;;3.20;81.80
10700;BME280;5401;41.986;21.452;2022-12-22T00:27:27;98859.13;;;3.13;82.77
10700;BME280;5401;41.986;21.452;2022-12-22T00:30:14;98838.94;;;2.95;82.14
10700;BME280;5401;41.986;21.452;2022-12-22T00:33:00;98853.38;;;3.00;82.21
10700;BME280;5401;41.986;21.452;2022-12-22T00:35:46;98860.34;;;3.01;82.98
10700;BME280;5401;41.986;21.452;2022-12-22T00:38:31;98858.00;;;2.98;82.66
10700;BME280;5401;41.986;21.452;2022-12-22T00:41:17;98852.97;;;2.87;83.01
10700;BME280;5401;41.986;21.452;2022-12-22T00:44:02;98862.41;;;2.90;82.84
10700;BME280;5401;41.986;21.452;2022-12-22T00:46:47;98856.91;;;2.83;82.35
10700;BME280;5401;41.986;21.452;2022-12-22T00:49:33;98863.16;;;2.83;82.20
10700;BME280;5401;41.986;21.452;2022-12-22T00:52:21;98861.78;;;2.79;82.65
10700;BME280;5401;41.986;21.452;2022-12-22T00:55:12;98839.38;;;2.65;82.76
10700;BME280;5401;41.986;21.452;2022-12-22T00:57:59;98860.28;;;2.76;82.54
10700;BME280;5401;41.986;21.452;2022-12-22T01:00:45;98854.31;;;2.74;82.61
10700;BME280;5401;41.986;21.452;2022-12-22T01:03:30;98852.00;;;2.71;82.89
10700;BME280;5401;41.986;21.452;2022-12-22T01:06:15;98822.41;;;2.50;83.23
10700;BME280;5401;41.986;21.452;2022-12-22T01:09:00;98854.09;;;2.68;82.74
10700;BME280;5401;41.986;21.452;2022-12-22T01:11:45;98842.63;;;2.59;82.81
10700;BME280;5401;41.986;21.452;2022-12-22T01:14:31;98844.44;;;2.59;82.87
10700;BME280;5401;41.986;21.452;2022-12-22T01:17:16;98814.00;;;2.38;82.58
10700;BME280;5401;41.986;21.452;2022-12-22T01:20:01;98843.38;;;2.52;83.33
10700;BME280;5401;41.986;21.452;2022-12-22T01:22:46;98842.47;;;2.44;82.69
10700;BME280;5401;41.986;21.452;2022-12-22T01:25:31;98842.38;;;2.36;83.64
10700;BME280;5401;41.986;21.452;2022-12-22T01:28:18;98837.72;;;2.30;83.32
10700;BME280;5401;41.986;21.452;2022-12-22T01:31:15;98841.44;;;2.37;83.93
10700;BME280;5401;41.986;21.452;2022-12-22T01:34:00;98850.03;;;2.39;83.83
10700;BME280;5401;41.986;21.452;2022-12-22T01:36:45;98836.16;;;2.37;84.01
10700;BME280;5401;41.986;21.452;2022-12-22T01:39:30;98838.94;;;2.35;83.57
10700;BME280;5401;41.986;21.452;2022-12-22T01:42:16;98834.09;;;2.31;83.94
10700;BME280;5401;41.986;21.452;2022-12-22T01:45:14;98840.22;;;2.31;83.63
10700;BME280;5401;41.986;21.452;2022-12-22T01:48:05;98840.88;;;2.33;83.65
10700;BME280;5401;41.986;21.452;2022-12-22T01:50:52;98838.25;;;2.33;84.12
10700;BME280;5401;41.986;21.452;2022-12-22T01:53:37;98838.25;;;2.33;84.05
10700;BME280;5401;41.986;21.452;2022-12-22T01:56:22;98830.78;;;2.29;84.30
10700;BME280;5401;41.986;21.452;2022-12-22T01:59:07;98840.06;;;2.33;84.19
10700;BME280;5401;41.986;21.452;2022-12-22T02:01:52;98840.56;;;2.36;84.17
10700;BME280;5401;41.986;21.452;2022-12-22T02:04:42;98842.38;;;2.36;84.15
10700;BME280;5401;41.986;21.452;2022-12-22T02:07:41;98843.38;;;2.35;84.17
10700;BME280;5401;41.986;21.452;2022-12-22T02:10:43;98817.34;;;2.22;84.32
10700;BME280;5401;41.986;21.452;2022-12-22T02:13:40;98837.72;;;2.30;83.82
10700;BME280;5401;41.986;21.452;2022-12-22T02:16:33;98831.25;;;2.24;83.83
10700;BME280;5401;41.986;21.452;2022-12-22T02:19:38;98825.41;;;2.21;84.11
10700;BME280;5401;41.986;21.452;2022-12-22T02:22:34;98832.66;;;2.19;84.31
10700;BME280;5401;41.986;21.452;2022-12-22T02:25:27;98832.66;;;2.19;84.09
10700;BME280;5401;41.986;21.452;2022-12-22T02:28:17;98829.19;;;2.18;84.21
10700;BME280;5401;41.986;21.452;2022-12-22T02:31:01;98831.28;;;2.15;84.28
10700;BME280;5401;41.986;21.452;2022-12-22T02:33:47;98830.91;;;2.10;84.56
10700;BME280;5401;41.986;21.452;2022-12-22T02:36:41;98838.16;;;2.08;84.36
10700;BME280;5401;41.986;21.452;2022-12-22T02:39:39;98837.03;;;2.11;84.37
10700;BME280;5401;41.986;21.452;2022-12-22T02:42:32;98837.72;;;2.13;83.81
10700;BME280;5401;41.986;21.452;2022-12-22T02:45:25;98839.50;;;2.12;84.02
10700;BME280;5401;41.986;21.452;2022-12-22T02:48:15;98839.94;;;2.08;84.63
10700;BME280;5401;41.986;21.452;2022-12-22T02:51:05;98837.75;;;2.03;84.75
10700;BME280;5401;41.986;21.452;2022-12-22T02:53:51;98835.16;;;1.94;84.69
10700;BME280;5401;41.986;21.452;2022-12-22T02:56:38;98833.97;;;1.88;84.09
10700;BME280;5401;41.986;21.452;2022-12-22T02:59:23;98837.19;;;1.82;84.43
10700;BME280;5401;41.986;21.452;2022-12-22T03:02:11;98830.81;;;1.76;84.11
10700;BME280;5401;41.986;21.452;2022-12-22T03:04:56;98833.75;;;1.73;84.84
10700;BME280;5401;41.986;21.452;2022-12-22T03:07:41;98832.38;;;1.69;85.03
10700;BME280;5401;41.986;21.452;2022-12-22T03:10:26;98822.66;;;1.69;85.04
10700;BME280;5401;41.986;21.452;2022-12-22T03:13:11;98832.94;;;1.72;84.78
10700;BME280;5401;41.986;21.452;2022-12-22T03:15:56;98827.50;;;1.74;85.43
10700;BME280;5401;41.986;21.452;2022-12-22T03:18:42;98824.34;;;1.70;84.98
10700;BME280;5401;41.986;21.452;2022-12-22T03:21:27;98813.09;;;1.68;85.45
10700;BME280;5401;41.986;21.452;2022-12-22T03:24:12;98811.59;;;1.66;85.10
10700;BME280;5401;41.986;21.452;2022-12-22T03:26:57;98810.28;;;1.70;85.37
10700;BME280;5401;41.986;21.452;2022-12-22T03:29:24;98811.28;;;1.69;85.03
10700;BME280;5401;41.986;21.452;2022-12-22T03:31:52;98816.00;;;1.65;85.65
10700;BME280;5401;41.986;21.452;2022-12-22T03:34:21;98823.94;;;1.65;85.52
10700;BME280;5401;41.986;21.452;2022-12-22T03:36:48;98809.25;;;1.53;85.26
10700;BME280;5401;41.986;21.452;2022-12-22T03:39:16;98818.06;;;1.44;85.75
10700;BME280;5401;41.986;21.452;2022-12-22T03:41:43;98819.22;;;1.33;85.35
10700;BME280;5401;41.986;21.452;2022-12-22T03:44:28;98823.41;;;1.26;85.86
10700;BME280;5401;41.986;21.452;2022-12-22T03:47:13;98823.41;;;1.26;85.92
10700;BME280;5401;41.986;21.452;2022-12-22T03:49:42;98818.38;;;1.32;86.63
10700;BME280;5401;41.986;21.452;2022-12-22T03:52:09;98822.78;;;1.41;86.40
10700;BME280;5401;41.986;21.452;2022-12-22T03:54:37;98819.44;;;1.48;86.29
10700;BME280;5401;41.986;21.452;2022-12-22T03:57:04;98816.22;;;1.54;86.77
10700;BME280;5401;41.986;21.452;2022-12-22T03:59:31;98814.81;;;1.60;86.63
10700;BME280;5401;41.986;21.452;2022-12-22T04:01:59;98811.59;;;1.66;86.59
10700;BME280;5401;41.986;21.452;2022-12-22T04:04:26;98810.16;;;1.71;85.86
10700;BME280;5401;41.986;21.452;2022-12-22T04:06:55;98810.84;;;1.73;86.69
10700;BME280;5401;41.986;21.452;2022-12-22T04:09:23;98809.56;;;1.77;86.34
10700;BME280;5401;41.986;21.452;2022-12-22T04:11:52;98814.56;;;1.80;86.00
10700;BME280;5401;41.986;21.452;2022-12-22T04:14:37;98810.94;;;1.81;86.41
10700;BME280;5401;41.986;21.452;2022-12-22T04:17:06;98815.66;;;1.77;85.82
10700;BME280;5401;41.986;21.452;2022-12-22T04:19:34;98806.94;;;1.77;85.62
10700;BME280;5401;41.986;21.452;2022-12-22T04:22:03;98814.91;;;1.68;85.40
10700;BME280;5401;41.986;21.452;2022-12-22T04:24:32;98816.88;;;1.66;86.08
10700;BME280;5401;41.986;21.452;2022-12-22T04:26:59;98807.84;;;1.59;86.17
10700;BME280;5401;41.986;21.452;2022-12-22T04:29:27;98817.28;;;1.61;86.43
10700;BME280;5401;41.986;21.452;2022-12-22T04:31:54;98818.13;;;1.62;86.05
10700;BME280;5401;41.986;21.452;2022-12-22T04:34:21;98814.66;;;1.61;85.78
10700;BME280;5401;41.986;21.452;2022-12-22T04:36:49;98808.34;;;1.45;85.69
10700;BME280;5401;41.986;21.452;2022-12-22T04:39:18;98821.72;;;1.61;86.26
10700;BME280;5401;41.986;21.452;2022-12-22T04:41:45;98814.25;;;1.56;85.75
10700;BME280;5401;41.986;21.452;2022-12-22T04:44:13;98827.31;;;1.58;86.12
10700;BME280;5401;41.986;21.452;2022-12-22T04:46:40;98825.94;;;1.54;86.15
10700;BME280;5401;41.986;21.452;2022-12-22T04:49:08;98822.91;;;1.49;85.75
10700;BME280;5401;41.986;21.452;2022-12-22T04:51:35;98825.16;;;1.44;85.65
10700;BME280;5401;41.986;21.452;2022-12-22T04:54:03;98829.06;;;1.40;85.68
10700;BME280;5401;41.986;21.452;2022-12-22T04:56:32;98819.91;;;1.35;86.02
10700;BME280;5401;41.986;21.452;2022-12-22T04:58:59;98822.28;;;1.28;85.99
10700;BME280;5401;41.986;21.452;2022-12-22T05:01:27;98829.41;;;1.18;86.17
10700;BME280;5401;41.986;21.452;2022-12-22T05:03:54;98823.19;;;1.10;85.88
10700;BME280;5401;41.986;21.452;2022-12-22T05:06:22;98825.69;;;1.02;86.02
10700;BME280;5401;41.986;21.452;2022-12-22T05:08:49;98825.81;;;1.01;86.08
10700;BME280;5401;41.986;21.452;2022-12-22T05:11:18;98815.03;;;0.94;86.22
10700;BME280;5401;41.986;21.452;2022-12-22T05:13:47;98810.56;;;0.95;86.14
10700;BME280;5401;41.986;21.452;2022-12-22T05:16:15;98801.97;;;0.93;86.24
10700;BME280;5401;41.986;21.452;2022-12-22T05:18:44;98815.31;;;0.91;86.14
10700;BME280;5401;41.986;21.452;2022-12-22T05:21:13;98814.78;;;0.88;86.00
10700;BME280;5401;41.986;21.452;2022-12-22T05:23:41;98798.28;;;0.76;86.43
10700;BME280;5401;41.986;21.452;2022-12-22T05:26:09;98780.31;;;0.63;86.46
10700;BME280;5401;41.986;21.452;2022-12-22T05:28:39;98812.31;;;0.77;86.25
10700;BME280;5401;41.986;21.452;2022-12-22T05:31:10;98821.16;;;0.67;86.65
10700;BME280;5401;41.986;21.452;2022-12-22T05:33:38;98827.97;;;0.69;86.58
10700;BME280;5401;41.986;21.452;2022-12-22T05:36:06;98831.16;;;0.72;86.71
10700;BME280;5401;41.986;21.452;2022-12-22T05:38:34;98828.81;;;0.79;87.14
10700;BME280;5401;41.986;21.452;2022-12-22T05:41:01;98828.22;;;0.85;87.31
10700;BME280;5401;41.986;21.452;2022-12-22T05:43:29;98821.84;;;0.87;86.59
10700;BME280;5401;41.986;21.452;2022-12-22T05:45:59;98834.47;;;0.93;87.26
10700;BME280;5401;41.986;21.452;2022-12-22T05:48:29;98833.34;;;0.86;86.87
10700;BME280;5401;41.986;21.452;2022-12-22T05:50:56;98834.72;;;0.90;87.02
10700;BME280;5401;41.986;21.452;2022-12-22T05:53:24;98810.50;;;0.77;87.22
10700;BME280;5401;41.986;21.452;2022-12-22T05:55:51;98843.19;;;1.03;87.62
10700;BME280;5401;41.986;21.452;2022-12-22T05:58:19;98841.50;;;1.11;87.21
10700;BME280;5401;41.986;21.452;2022-12-22T06:00:46;98836.63;;;1.16;87.05
10700;BME280;5401;41.986;21.452;2022-12-22T06:03:14;98837.84;;;1.22;86.88
10700;BME280;5401;41.986;21.452;2022-12-22T06:05:43;98844.34;;;1.27;86.98
10700;BME280;5401;41.986;21.452;2022-12-22T06:08:10;98851.69;;;1.33;86.54
10700;BME280;5401;41.986;21.452;2022-12-22T06:10:37;98854.06;;;1.36;86.57
10700;BME280;5401;41.986;21.452;2022-12-22T06:13:05;98841.56;;;1.38;86.70
10700;BME280;5401;41.986;21.452;2022-12-22T06:15:32;98847.91;;;1.45;86.89
10700;BME280;5401;41.986;21.452;2022-12-22T06:18:00;98849.41;;;1.47;85.86
10700;BME280;5401;41.986;21.452;2022-12-22T06:20:28;98812.88;;;1.26;85.82
10700;BME280;5401;41.986;21.452;2022-12-22T06:22:56;98845.94;;;1.47;86.22
10700;BME280;5401;41.986;21.452;2022-12-22T06:25:24;98845.50;;;1.51;85.92
10700;BME280;5401;41.986;21.452;2022-12-22T06:27:51;98829.84;;;1.50;86.30
10700;BME280;5401;41.986;21.452;2022-12-22T06:30:19;98839.13;;;1.54;86.21
10700;BME280;5401;41.986;21.452;2022-12-22T06:32:46;98835.22;;;1.58;85.71
10700;BME280;5401;41.986;21.452;2022-12-22T06:35:14;98836.28;;;1.65;85.56
10700;BME280;5401;41.986;21.452;2022-12-22T06:37:41;98839.53;;;1.85;85.50
10700;BME280;5401;41.986;21.452;2022-12-22T06:40:11;98841.47;;;2.10;85.59
10700;BME280;5401;41.986;21.452;2022-12-22T06:42:38;98835.97;;;2.21;85.31
10700;BME280;5401;41.986;21.452;2022-12-22T06:45:23;98841.94;;;2.40;84.25
10700;BME280;5401;41.986;21.452;2022-12-22T06:47:51;98838.84;;;2.62;84.16
10700;BME280;5401;41.986;21.452;2022-12-22T06:50:18;98851.38;;;2.77;83.68
10700;BME280;5401;41.986;21.452;2022-12-22T06:52:46;98843.06;;;2.89;82.83
10700;BME280;5401;41.986;21.452;2022-12-22T06:55:15;98848.56;;;2.96;82.46
10700;BME280;5401;41.986;21.452;2022-12-22T06:57:42;98843.81;;;2.82;82.09
10700;BME280;5401;41.986;21.452;2022-12-22T07:00:10;98845.03;;;2.87;82.85
10700;BME280;5401;41.986;21.452;2022-12-22T07:02:38;98850.06;;;2.98;82.32
10700;BME280;5401;41.986;21.452;2022-12-22T07:05:06;98850.66;;;3.10;82.28
10700;BME280;5401;41.986;21.452;2022-12-22T07:07:33;98837.28;;;3.11;82.68
10700;BME280;5401;41.986;21.452;2022-12-22T07:10:01;98844.97;;;3.22;82.78
10700;BME280;5401;41.986;21.452;2022-12-22T07:12:30;98848.00;;;3.35;81.88
10700;BME280;5401;41.986;21.452;2022-12-22T07:14:57;98840.50;;;3.48;82.56
10700;BME280;5401;41.986;21.452;2022-12-22T07:17:25;98850.31;;;3.63;82.24
10700;BME280;5401;41.986;21.452;2022-12-22T07:19:52;98857.34;;;3.72;82.06
10700;BME280;5401;41.986;21.452;2022-12-22T07:22:20;98850.75;;;3.76;82.16
10700;BME280;5401;41.986;21.452;2022-12-22T07:24:47;98857.84;;;3.75;81.22
10700;BME280;5401;41.986;21.452;2022-12-22T07:27:15;98846.34;;;3.59;81.22
10700;BME280;5401;41.986;21.452;2022-12-22T07:29:44;98864.00;;;3.51;81.46
10700;BME280;5401;41.986;21.452;2022-12-22T07:32:12;98858.59;;;3.35;81.46
10700;BME280;5401;41.986;21.452;2022-12-22T07:34:40;98861.50;;;3.24;81.86
10700;BME280;5401;41.986;21.452;2022-12-22T07:37:08;98848.00;;;3.10;82.12
10700;BME280;5401;41.986;21.452;2022-12-22T07:39:35;98855.28;;;3.08;81.91
10700;BME280;5401;41.986;21.452;2022-12-22T07:42:03;98862.53;;;3.06;81.88
10700;BME280;5401;41.986;21.452;2022-12-22T07:44:49;98857.03;;;2.99;81.46
10700;BME280;5401;41.986;21.452;2022-12-22T07:47:17;98858.78;;;2.91;81.66
10700;BME280;5401;41.986;21.452;2022-12-22T07:49:44;98854.81;;;2.95;82.59
10700;BME280;5401;41.986;21.452;2022-12-22T07:52:39;98859.00;;;2.97;81.97
10700;BME280;5401;41.986;21.452;2022-12-22T07:55:08;98865.25;;;2.96;82.50
10700;BME280;5401;41.986;21.452;2022-12-22T07:57:35;98872.69;;;2.93;82.01
10700;BME280;5401;41.986;21.452;2022-12-22T08:00:05;98882.25;;;2.94;81.80
10700;BME280;5401;41.986;21.452;2022-12-22T08:02:33;98864.69;;;2.85;82.29
10700;BME280;5401;41.986;21.452;2022-12-22T08:05:00;98875.06;;;2.86;82.54
10700;BME280;5401;41.986;21.452;2022-12-22T08:07:28;98860.50;;;2.83;81.88
10700;BME280;5401;41.986;21.452;2022-12-22T08:09:57;98877.22;;;2.83;82.73
10700;BME280;5401;41.986;21.452;2022-12-22T08:12:26;98838.78;;;2.54;82.44
10700;BME280;5401;41.986;21.452;2022-12-22T08:14:54;98871.91;;;2.66;82.90
10700;BME280;5401;41.986;21.452;2022-12-22T08:17:23;98877.44;;;2.55;82.87
10700;BME280;5401;41.986;21.452;2022-12-22T08:19:51;98883.53;;;2.38;82.53
10700;BME280;5401;41.986;21.452;2022-12-22T08:22:18;98871.28;;;2.20;82.70
10700;BME280;5401;41.986;21.452;2022-12-22T08:24:49;98882.94;;;2.27;82.36
10700;BME280;5401;41.986;21.452;2022-12-22T08:27:20;98888.66;;;2.40;82.57
10700;BME280;5401;41.986;21.452;2022-12-22T08:29:53;98874.19;;;2.44;82.67
10700;BME280;5401;41.986;21.452;2022-12-22T08:32:23;98873.28;;;2.35;82.48
10700;BME280;5401;41.986;21.452;2022-12-22T08:34:51;98873.88;;;2.29;82.38
10700;BME280;5401;41.986;21.452;2022-12-22T08:37:22;98878.69;;;2.34;82.98
10700;BME280;5401;41.986;21.452;2022-12-22T08:39:52;98884.88;;;2.42;82.73
10700;BME280;5401;41.986;21.452;2022-12-22T08:42:23;98877.50;;;2.46;82.96
10700;BME280;5401;41.986;21.452;2022-12-22T08:44:51;98877.28;;;2.56;82.83
10700;BME280;5401;41.986;21.452;2022-12-22T08:47:20;98861.00;;;2.61;82.61
10700;BME280;5401;41.986;21.452;2022-12-22T08:49:49;98868.22;;;2.76;82.55
10700;BME280;5401;41.986;21.452;2022-12-22T08:52:16;98853.50;;;2.74;82.28
10700;BME280;5401;41.986;21.452;2022-12-22T08:54:44;98863.47;;;2.80;82.56
10700;BME280;5401;41.986;21.452;2022-12-22T08:57:12;98856.75;;;2.85;82.40
10700;BME280;5401;41.986;21.452;2022-12-22T08:59:40;98861.47;;;2.99;81.48
10700;BME280;5401;41.986;21.452;2022-12-22T09:02:07;98842.06;;;2.90;81.85
10700;BME280;5401;41.986;21.452;2022-12-22T09:04:36;98861.25;;;3.10;81.77
10700;BME280;5401;41.986;21.452;2022-12-22T09:07:05;98845.44;;;3.18;81.24
10700;BME280;5401;41.986;21.452;2022-12-22T09:09:33;98853.88;;;3.21;81.26
10700;BME280;5401;41.986;21.452;2022-12-22T09:12:01;98838.78;;;3.14;81.36
10700;BME280;5401;41.986;21.452;2022-12-22T09:14:29;98847.81;;;3.28;81.98
10700;BME280;5401;41.986;21.452;2022-12-22T09:16:58;98851.53;;;3.43;81.09
10700;BME280;5401;41.986;21.452;2022-12-22T09:19:26;98837.63;;;3.41;81.76
10700;BME280;5401;41.986;21.452;2022-12-22T09:21:53;98808.13;;;3.28;81.40
10700;BME280;5401;41.986;21.452;2022-12-22T09:24:22;98843.69;;;3.59;81.26
10700;BME280;5401;41.986;21.452;2022-12-22T09:26:50;98836.56;;;3.59;80.72
10700;BME280;5401;41.986;21.452;2022-12-22T09:29:17;98840.50;;;3.81;80.63
10700;BME280;5401;41.986;21.452;2022-12-22T09:31:45;98814.66;;;3.75;81.03
10700;BME280;5401;41.986;21.452;2022-12-22T09:34:13;98833.44;;;3.97;81.06
10700;BME280;5401;41.986;21.452;2022-12-22T09:36:40;98821.72;;;4.07;80.94
10700;BME280;5401;41.986;21.452;2022-12-22T09:39:10;98812.47;;;4.11;80.21
10700;BME280;5401;41.986;21.452;2022-12-22T09:41:44;98818.66;;;4.35;79.96
10700;BME280;5401;41.986;21.452;2022-12-22T09:44:15;98795.47;;;4.45;79.84
10700;BME280;5401;41.986;21.452;2022-12-22T09:46:44;98802.94;;;4.65;79.86
10700;BME280;5401;41.986;21.452;2022-12-22T09:49:13;98802.97;;;4.81;79.68
10700;BME280;5401;41.986;21.452;2022-12-22T09:51:45;98797.31;;;4.92;78.89
10700;BME280;5401;41.986;21.452;2022-12-22T09:54:13;98792.66;;;5.02;79.13
10700;BME280;5401;41.986;21.452;2022-12-22T09:56:42;98792.81;;;5.16;78.42
10700;BME280;5401;41.986;21.452;2022-12-22T09:59:11;98790.44;;;5.29;78.76
10700;BME280;5401;41.986;21.452;2022-12-22T10:01:55;98787.25;;;5.49;77.97
10700;BME280;5401;41.986;21.452;2022-12-22T10:04:35;98784.72;;;5.64;77.86
10700;BME280;5401;41.986;21.452;2022-12-22T10:07:14;98780.88;;;5.82;77.54
10700;BME280;5401;41.986;21.452;2022-12-22T10:09:43;98775.97;;;5.93;77.25
10700;BME280;5401;41.986;21.452;2022-12-22T10:12:15;98782.06;;;6.02;76.78
10700;BME280;5401;41.986;21.452;2022-12-22T10:14:45;98760.78;;;6.09;76.63
10700;BME280;5401;41.986;21.452;2022-12-22T10:17:15;98762.75;;;6.15;76.25
10700;BME280;5401;41.986;21.452;2022-12-22T10:19:45;98760.53;;;6.27;76.24
10700;BME280;5401;41.986;21.452;2022-12-22T10:22:29;98765.00;;;6.26;76.02
10700;BME280;5401;41.986;21.452;2022-12-22T10:25:00;98754.38;;;6.26;75.80
10700;BME280;5401;41.986;21.452;2022-12-22T10:27:31;98755.38;;;6.25;75.91
10700;BME280;5401;41.986;21.452;2022-12-22T10:30:20;98762.03;;;6.21;75.83
10700;BME280;5401;41.986;21.452;2022-12-22T10:33:04;98751.41;;;6.21;75.96
10700;BME280;5401;41.986;21.452;2022-12-22T10:35:45;98742.56;;;6.29;76.03
10700;BME280;5401;41.986;21.452;2022-12-22T10:38:16;98741.97;;;6.41;76.00
10700;BME280;5401;41.986;21.452;2022-12-22T10:40:47;98735.69;;;6.56;76.06
10700;BME280;5401;41.986;21.452;2022-12-22T10:43:22;98723.94;;;6.51;75.55
10700;BME280;5401;41.986;21.452;2022-12-22T10:45:51;98723.59;;;6.32;75.57
10700;BME280;5401;41.986;21.452;2022-12-22T10:48:32;98715.25;;;6.12;75.51
10700;BME280;5401;41.986;21.452;2022-12-22T10:51:00;98717.59;;;6.07;75.75
10700;BME280;5401;41.986;21.452;2022-12-22T10:53:45;98720.09;;;6.09;75.96
10700;BME280;5401;41.986;21.452;2022-12-22T10:56:19;98714.84;;;6.23;75.94
10700;BME280;5401;41.986;21.452;2022-12-22T10:58:51;98707.53;;;6.25;75.95
10700;BME280;5401;41.986;21.452;2022-12-22T11:01:24;98696.81;;;6.11;75.73
10700;BME280;5401;41.986;21.452;2022-12-22T11:03:51;98691.22;;;6.06;75.83
10700;BME280;5401;41.986;21.452;2022-12-22T11:06:19;98697.84;;;6.10;75.50
10700;BME280;5401;41.986;21.452;2022-12-22T11:08:47;98680.03;;;5.88;75.93
10700;BME280;5401;41.986;21.452;2022-12-22T11:11:27;98689.56;;;5.75;75.80
10700;BME280;5401;41.986;21.452;2022-12-22T11:14:07;98683.44;;;5.67;76.03
10700;BME280;5401;41.986;21.452;2022-12-22T11:16:43;98689.38;;;5.84;76.18
10700;BME280;5401;41.986;21.452;2022-12-22T11:19:35;98666.09;;;5.86;76.31
10700;BME280;5401;41.986;21.452;2022-12-22T11:22:13;98673.66;;;5.97;75.75
10700;BME280;5401;41.986;21.452;2022-12-22T11:24:52;98674.44;;;6.05;76.31
10700;BME280;5401;41.986;21.452;2022-12-22T11:27:28;98677.19;;;6.12;75.70
10700;BME280;5401;41.986;21.452;2022-12-22T11:30:05;98678.84;;;5.91;75.77
10700;BME280;5401;41.986;21.452;2022-12-22T11:32:48;98673.34;;;5.62;75.81
10700;BME280;5401;41.986;21.452;2022-12-22T11:35:32;98667.66;;;5.35;76.28
10700;BME280;5401;41.986;21.452;2022-12-22T11:38:11;98667.59;;;5.51;76.45
10700;BME280;5401;41.986;21.452;2022-12-22T11:40:41;98662.56;;;5.64;76.55
10700;BME280;5401;41.986;21.452;2022-12-22T11:43:22;98660.38;;;5.67;76.37
10700;BME280;5401;41.986;21.452;2022-12-22T11:46:04;98662.19;;;5.67;76.57
10700;BME280;5401;41.986;21.452;2022-12-22T11:48:49;98624.72;;;5.62;76.83
10700;BME280;5401;41.986;21.452;2022-12-22T11:51:30;98653.53;;;6.03;76.63
10700;BME280;5401;41.986;21.452;2022-12-22T11:54:26;98651.94;;;6.16;76.38
10700;BME280;5401;41.986;21.452;2022-12-22T11:57:06;98650.13;;;6.16;76.25
10700;BME280;5401;41.986;21.452;2022-12-22T11:59:46;98642.19;;;6.31;75.90
10700;BME280;5401;41.986;21.452;2022-12-22T12:02:52;98634.81;;;6.18;75.73
10700;BME280;5401;41.986;21.452;2022-12-22T12:05:48;;;;6.23;
10700;BME280;5401;41.986;21.452;2022-12-22T12:08:27;98625.00;;;6.19;75.31
10700;BME280;5401;41.986;21.452;2022-12-22T12:11:09;98634.56;;;6.28;75.53
10700;BME280;5401;41.986;21.452;2022-12-22T12:13:48;98625.75;;;6.27;75.74
10700;BME280;5401;41.986;21.452;2022-12-22T12:16:29;98632.75;;;6.28;75.73
10700;BME280;5401;41.986;21.452;2022-12-22T12:19:42;98621.84;;;6.38;75.42
10700;BME280;5401;41.986;21.452;2022-12-22T12:22:20;98592.13;;;6.34;75.62
10700;BME280;5401;41.986;21.452;2022-12-22T12:24:58;98621.88;;;6.66;75.49
10700;BME280;5401;41.986;21.452;2022-12-22T12:27:48;98619.53;;;6.85;74.92
10700;BME280;5401;41.986;21.452;2022-12-22T12:30:21;98616.06;;;6.99;74.60
10700;BME280;5401;41.986;21.452;2022-12-22T12:32:53;98614.03;;;7.15;74.10
10700;BME280;5401;41.986;21.452;2022-12-22T12:35:40;98605.28;;;7.36;74.20
10700;BME280;5401;41.986;21.452;2022-12-22T12:38:15;98596.56;;;7.62;73.73
10700;BME280;5401;41.986;21.452;2022-12-22T12:40:50;98590.72;;;7.73;73.48
10700;BME280;5401;41.986;21.452;2022-12-22T12:43:21;98596.22;;;7.86;73.35
10700;BME280;5401;41.986;21.452;2022-12-22T12:45:49;98591.66;;;8.01;73.00
10700;BME280;5401;41.986;21.452;2022-12-22T12:48:39;98587.84;;;8.10;72.89
10700;BME280;5401;41.986;21.452;2022-12-22T12:54:41;98588.19;;;8.21;72.70
10700;BME280;5401;41.986;21.452;2022-12-22T12:57:22;98584.69;;;8.20;71.77
10700;BME280;5401;41.986;21.452;2022-12-22T12:59:51;98584.28;;;8.23;71.94
10700;BME280;5401;41.986;21.452;2022-12-22T13:02:38;98583.78;;;8.34;72.14
10700;BME280;5401;41.986;21.452;2022-12-22T13:05:33;98581.97;;;8.41;72.43
10700;BME280;5401;41.986;21.452;2022-12-22T13:08:19;98565.34;;;8.39;71.49
10700;BME280;5401;41.986;21.452;2022-12-22T13:11:28;98580.63;;;8.52;71.14
10700;BME280;5401;41.986;21.452;2022-12-22T13:13:56;98571.22;;;8.55;71.59
10700;BME280;5401;41.986;21.452;2022-12-22T13:16:35;98571.47;;;8.60;70.87
10700;BME280;5401;41.986;21.452;2022-12-22T13:19:24;98571.06;;;8.63;70.68
10700;BME280;5401;41.986;21.452;2022-12-22T13:21:53;98565.91;;;8.62;71.57
10700;BME280;5401;41.986;21.452;2022-12-22T13:24:29;98562.88;;;8.65;70.75
10700;BME280;5401;41.986;21.452;2022-12-22T13:27:03;98555.47;;;8.60;71.39
10700;BME280;5401;41.986;21.452;2022-12-22T13:29:40;98519.00;;;8.40;71.20
10700;BME280;5401;41.986;21.452;2022-12-22T13:32:23;98542.31;;;8.59;71.19
10700;BME280;5401;41.986;21.452;2022-12-22T13:34:57;98515.59;;;8.53;71.54
10700;BME280;5401;41.986;21.452;2022-12-22T13:37:27;98563.34;;;8.75;71.01
10700;BME280;5401;41.986;21.452;2022-12-22T13:40:13;98551.09;;;8.53;70.83
10700;BME280;5401;41.986;21.452;2022-12-22T13:42:45;98561.72;;;8.47;72.07
10700;BME280;5401;41.986;21.452;2022-12-22T13:45:22;98555.75;;;8.45;71.19
10700;BME280;5401;41.986;21.452;2022-12-22T13:47:52;98547.78;;;8.24;71.66
10700;BME280;5401;41.986;21.452;2022-12-22T13:50:23;98555.09;;;8.16;71.26
10700;BME280;5401;41.986;21.452;2022-12-22T13:52:52;98556.31;;;8.13;71.04
10700;BME280;5401;41.986;21.452;2022-12-22T13:55:24;98555.09;;;8.16;71.01
10700;BME280;5401;41.986;21.452;2022-12-22T13:57:59;98557.75;;;8.16;71.71
10700;BME280;5401;41.986;21.452;2022-12-22T14:00:30;98532.03;;;8.08;71.43
10700;BME280;5401;41.986;21.452;2022-12-22T14:02:57;98547.09;;;8.16;71.31